aviador You're here:

KPNE Decoded Metar

PHILADELPHIA in PA, USA
Report Time2018-06-22 00:54:00
UTC Time2018-06-22 01:14:08
Flight Rules vfr VFR
WindCalm
Visibility9999 m
Phenomena:N/A
Clouds:N/A
Expected CloudBase > 4,400 ft AGL from Temp-Dew spread
CeilingNone
Temp26°C (ISA +11)
Dew Point15°C (51% RH)
QNH1010 hPa
Density Alt1,713 ft
Elevation92 ft
Report Wrong Elevation
Raw Report
KPNE 220054Z AUTO 00000KT 10SM CLR 26/15 A2982 RMK AO2 SLP097
T02560150=

Extra information for KPNE:More info

Metar Taf Metar & Taf Last 4 Metars F.Rules Stats Wind Profile Meteogram Temp Stats Airport Information Weather charts Add Link Nearby VenuesMetar ALERT Operation Metar Decoded Social comments

AIRNAV info for KPNE